Time;durP1;ratioP1;P1;durP2;ratioP2;P2;SDS_P1;SDS_P2;PMS_P1;PMS_P2;Temp;Humidity;BMP_temperature;BMP_pressure;BME280_temperature;BME280_humidity;BME280_pressure;Samples;Min_cycle;Max_cycle;Signal;HPM_P1;HPM_P2
2020/12/03 00:01:02;;;;;;;16.63;8.70;;;51.60;2073.60;;;;;;5116985;28;20054;-70
2020/12/03 00:03:38;;;;;;;14.80;7.97;;;51.60;2073.60;;;;;;5117427;28;20451;-72
2020/12/03 00:06:19;;;;;;;14.70;6.75;;;51.60;2073.60;;;;;;5117147;28;20059;-70
2020/12/03 00:09:00;;;;;;;13.80;7.10;;;51.40;2099.20;;;;;;5116714;28;20436;-70
2020/12/03 00:11:31;;;;;;;12.55;6.70;;;51.50;2099.20;;;;;;5117012;28;20039;-70
2020/12/03 00:13:57;;;;;;;13.07;7.63;;;51.60;2099.20;;;;;;5116864;28;20337;-71
2020/12/03 00:16:27;;;;;;;16.65;8.20;;;51.70;2099.20;;;;;;5116564;28;20051;-71
2020/12/03 00:18:53;;;;;;;30.77;14.82;;;51.50;2073.60;;;;;;5116304;28;20027;-70
2020/12/03 00:21:43;;;;;;;22.70;10.88;;;51.40;2099.20;;;;;;5116784;28;20062;-71
2020/12/03 00:24:11;;;;;;;15.80;9.15;;;51.50;2099.20;;;;;;5116097;28;20027;-69
2020/12/03 00:26:37;;;;;;;15.93;9.50;;;51.60;2099.20;;;;;;5116854;28;20123;-69
2020/12/03 00:29:03;;;;;;;13.73;7.38;;;51.70;2099.20;;;;;;5116685;28;20035;-70
2020/12/03 00:31:29;;;;;;;13.77;8.23;;;51.70;2099.20;;;;;;5116613;28;20036;-72
2020/12/03 00:33:55;;;;;;;11.52;7.15;;;51.80;2073.60;;;;;;5116813;28;20027;-70
2020/12/03 00:36:21;;;;;;;18.33;9.18;;;51.70;2073.60;;;;;;5116408;28;20076;-72
2020/12/03 00:38:48;;;;;;;16.00;8.48;;;51.70;2073.60;;;;;;5116862;28;20409;-70
2020/12/03 00:41:15;;;;;;;15.35;8.90;;;51.60;2073.60;;;;;;5115911;28;20443;-69
2020/12/03 00:43:41;;;;;;;16.63;8.98;;;51.50;2099.20;;;;;;5116132;28;20034;-69
2020/12/03 00:46:07;;;;;;;13.38;7.68;;;51.50;2099.20;;;;;;5116520;28;20035;-69
2020/12/03 00:48:33;;;;;;;14.02;8.25;;;51.40;2124.80;;;;;;5116028;28;20068;-68
2020/12/03 00:50:59;;;;;;;13.35;7.03;;;51.30;2124.80;;;;;;5116301;28;20035;-69
2020/12/03 00:53:25;;;;;;;15.15;7.50;;;51.40;2124.80;;;;;;5115714;28;20023;-68
2020/12/03 00:55:50;;;;;;;14.00;7.95;;;51.40;2124.80;;;;;;5116347;28;20027;-71
2020/12/03 00:58:17;;;;;;;13.15;7.82;;;51.50;2124.80;;;;;;5115654;28;20024;-70
2020/12/03 01:00:43;;;;;;;14.25;7.13;;;51.60;2099.20;;;;;;5116026;28;20034;-70
2020/12/03 01:03:09;;;;;;;16.33;9.52;;;51.50;2099.20;;;;;;5111211;28;20035;-70
2020/12/03 01:05:35;;;;;;;14.50;9.02;;;51.50;2099.20;;;;;;5115172;28;20100;-71
2020/12/03 01:08:02;;;;;;;12.07;7.20;;;51.50;2099.20;;;;;;5115437;28;20468;-69
2020/12/03 01:10:31;;;;;;;12.82;7.53;;;51.60;2099.20;;;;;;5115729;28;20393;-71
2020/12/03 01:12:58;;;;;;;14.65;5.97;;;51.60;2099.20;;;;;;5115709;28;20024;-69
2020/12/03 01:15:24;;;;;;;12.65;6.15;;;51.40;2124.80;;;;;;5115730;28;20039;-70
2020/12/03 01:17:50;;;;;;;13.25;6.93;;;51.40;2099.20;;;;;;5115699;28;20100;-72
2020/12/03 01:20:25;;;;;;;15.73;8.38;;;51.40;2099.20;;;;;;5115843;28;20385;-70
2020/12/03 01:22:51;;;;;;;15.20;7.88;;;51.50;2099.20;;;;;;5115796;28;20062;-70
2020/12/03 01:25:20;;;;;;;13.52;6.05;;;51.30;2099.20;;;;;;5115125;28;20374;-73
2020/12/03 01:27:46;;;;;;;16.70;6.95;;;51.20;2124.80;;;;;;5115879;28;20106;-69
2020/12/03 01:30:13;;;;;;;16.58;7.88;;;51.20;2124.80;;;;;;5097839;28;20036;-69
2020/12/03 01:32:40;;;;;;;13.35;7.32;;;51.30;2124.80;;;;;;5095259;28;20325;-72
2020/12/03 01:35:08;;;;;;;16.27;7.95;;;51.30;2124.80;;;;;;5095133;28;20124;-69
2020/12/03 01:37:35;;;;;;;11.52;6.32;;;51.40;2099.20;;;;;;5095083;28;20051;-69
2020/12/03 01:40:01;;;;;;;14.02;6.78;;;51.40;2124.80;;;;;;5094484;28;20376;-69
2020/12/03 01:42:26;;;;;;;12.65;7.03;;;51.30;2124.80;;;;;;5095016;28;20039;-71
2020/12/03 01:44:54;;;;;;;13.70;7.25;;;51.40;2124.80;;;;;;5094752;28;20139;-68
2020/12/03 01:47:37;;;;;;;15.32;7.38;;;51.50;2099.20;;;;;;5093977;28;20039;-71
2020/12/03 01:50:05;;;;;;;11.93;6.35;;;51.50;2124.80;;;;;;5095009;28;20028;-69
2020/12/03 01:52:32;;;;;;;11.68;6.05;;;51.50;2099.20;;;;;;5095056;28;20027;-70
2020/12/03 01:54:58;;;;;;;15.88;8.20;;;51.60;2124.80;;;;;;5095138;28;20036;-70
2020/12/03 01:57:53;;;;;;;19.27;9.85;;;51.60;2099.20;;;;;;5094957;28;20020;-71
2020/12/03 02:00:20;;;;;;;13.30;7.07;;;51.50;2099.20;;;;;;5095063;28;20052;-70
2020/12/03 02:02:49;;;;;;;12.23;7.03;;;51.60;2124.80;;;;;;5094929;28;20114;-70
2020/12/03 02:05:20;;;;;;;16.52;8.13;;;51.50;2124.80;;;;;;5094245;28;20035;-71
2020/12/03 02:07:46;;;;;;;14.82;8.15;;;51.60;2124.80;;;;;;5094985;28;20047;-71
2020/12/03 02:10:13;;;;;;;12.80;6.97;;;51.70;2124.80;;;;;;5094981;28;20031;-71
2020/12/03 02:12:39;;;;;;;14.57;7.40;;;51.80;2099.20;;;;;;5095010;28;20020;-69
2020/12/03 02:15:08;;;;;;;19.52;8.25;;;51.90;2099.20;;;;;;5094412;28;20036;-69
2020/12/03 02:17:35;;;;;;;18.98;7.85;;;51.70;2073.60;;;;;;5094675;28;20051;-70
2020/12/03 02:20:06;;;;;;;17.00;8.70;;;51.50;2099.20;;;;;;5095110;28;20039;-70
2020/12/03 02:22:32;;;;;;;21.38;9.60;;;51.50;2099.20;;;;;;5094809;28;20557;-72
2020/12/03 02:24:58;;;;;;;18.25;8.75;;;51.60;2099.20;;;;;;5094314;28;20024;-70
2020/12/03 02:27:25;;;;;;;15.82;7.50;;;51.50;2124.80;;;;;;5094948;28;20055;-70
2020/12/03 02:29:51;;;;;;;13.98;6.50;;;51.50;2124.80;;;;;;5094290;28;20035;-70
2020/12/03 02:32:18;;;;;;;15.65;7.03;;;51.40;2124.80;;;;;;5094778;28;20043;-69
2020/12/03 02:34:44;;;;;;;14.98;7.53;;;51.40;2124.80;;;;;;5094404;28;20027;-71
2020/12/03 02:37:11;;;;;;;14.07;7.30;;;51.40;2124.80;;;;;;5094665;28;20474;-70
2020/12/03 02:39:38;;;;;;;12.20;6.25;;;51.30;2150.40;;;;;;5094576;28;20402;-71
2020/12/03 02:42:08;;;;;;;14.57;7.75;;;51.40;2150.40;;;;;;5094397;28;20032;-72
2020/12/03 02:44:43;;;;;;;12.52;6.40;;;51.50;2124.80;;;;;;5095050;28;20028;-70
2020/12/03 02:47:11;;;;;;;17.02;8.45;;;51.40;2124.80;;;;;;5094710;28;20092;-69
2020/12/03 02:49:41;;;;;;;15.00;7.47;;;51.20;2124.80;;;;;;5094307;28;20024;-69
2020/12/03 02:52:09;;;;;;;13.75;6.95;;;51.30;2124.80;;;;;;5094274;28;20115;-72
2020/12/03 02:54:35;;;;;;;15.70;8.27;;;51.30;2124.80;;;;;;5094183;28;20028;-69
2020/12/03 02:57:01;;;;;;;11.23;6.20;;;51.20;2150.40;;;;;;5094245;28;20024;-68
2020/12/03 02:59:26;;;;;;;15.43;6.75;;;51.30;2124.80;;;;;;5097064;28;20337;-68
2020/12/03 03:01:52;;;;;;;11.18;6.45;;;51.30;2150.40;;;;;;5098530;28;20114;-70
2020/12/03 03:04:18;;;;;;;13.20;6.38;;;51.30;2150.40;;;;;;5097311;28;20032;-68
2020/12/03 03:06:44;;;;;;;12.25;6.63;;;51.30;2150.40;;;;;;5097996;28;20511;-69
2020/12/03 03:09:09;;;;;;;13.55;7.00;;;51.30;2150.40;;;;;;5097808;28;20028;-70
2020/12/03 03:11:36;;;;;;;14.15;7.43;;;26.50;2150.40;;;;;;5097470;28;20036;-70
2020/12/03 03:14:04;;;;;;;11.80;6.75;;;51.20;2150.40;;;;;;5097960;28;20169;-71
2020/12/03 03:16:31;;;;;;;16.02;7.10;;;26.50;2150.40;;;;;;5097534;28;20111;-72
2020/12/03 03:18:57;;;;;;;15.90;7.75;;;51.30;2150.40;;;;;;5097522;28;20028;-70
2020/12/03 03:21:25;;;;;;;14.27;7.85;;;51.40;2176.00;;;;;;5097510;28;20129;-71
2020/12/03 03:23:50;;;;;;;14.60;7.20;;;51.50;2176.00;;;;;;5096844;28;20334;-71
2020/12/03 03:26:16;;;;;;;14.90;7.55;;;51.20;2176.00;;;;;;5097495;28;20028;-71
2020/12/03 03:28:42;;;;;;;14.40;7.32;;;51.20;2150.40;;;;;;5096712;28;20024;-69
2020/12/03 03:31:08;;;;;;;18.98;9.68;;;51.20;2150.40;;;;;;5096800;28;20333;-69
2020/12/03 03:33:34;;;;;;;18.45;8.82;;;51.20;2150.40;;;;;;5097545;28;20031;-71
2020/12/03 03:36:00;;;;;;;17.25;8.82;;;51.20;2150.40;;;;;;5096654;28;20409;-69
2020/12/03 03:38:26;;;;;;;18.73;8.88;;;26.50;2150.40;;;;;;5097157;28;20063;-70
2020/12/03 03:40:52;;;;;;;15.82;8.20;;;51.20;2176.00;;;;;;5097412;28;20028;-70
2020/12/03 03:43:19;;;;;;;14.75;7.82;;;51.20;2150.40;;;;;;5096781;28;20066;-70
2020/12/03 03:45:45;;;;;;;14.52;8.45;;;26.50;2150.40;;;;;;5097239;28;20032;-69
2020/12/03 03:48:11;;;;;;;15.88;8.40;;;26.50;2150.40;;;;;;5096700;28;20023;-70
2020/12/03 03:50:37;;;;;;;19.67;8.80;;;51.20;2176.00;;;;;;5097076;28;20119;-70
2020/12/03 03:53:03;;;;;;;14.77;8.23;;;26.40;2150.40;;;;;;5096757;28;20132;-70
2020/12/03 03:55:28;;;;;;;16.17;8.60;;;26.40;2176.00;;;;;;5096715;28;20035;-70
2020/12/03 03:57:54;;;;;;;20.92;10.13;;;26.50;2201.60;;;;;;5097271;28;20028;-71
2020/12/03 04:00:21;;;;;;;16.27;8.60;;;51.20;2176.00;;;;;;5096720;28;20089;-69
2020/12/03 04:02:48;;;;;;;19.20;9.90;;;51.30;2176.00;;;;;;5096996;28;20031;-69
2020/12/03 04:05:15;;;;;;;45.88;19.77;;;51.20;2201.60;;;;;;5096774;28;20432;-70
2020/12/03 04:07:41;;;;;;;48.08;20.63;;;51.20;2201.60;;;;;;5096233;28;20027;-68
2020/12/03 04:10:07;;;;;;;33.10;15.55;;;51.20;2201.60;;;;;;5096243;28;20485;-69
2020/12/03 04:12:34;;;;;;;24.15;12.45;;;51.20;2201.60;;;;;;5096458;28;20028;-68
2020/12/03 04:15:00;;;;;;;60.30;26.13;;;51.20;2201.60;;;;;;5096809;28;20037;-69
2020/12/03 04:17:30;;;;;;;43.83;24.08;;;51.30;2176.00;;;;;;5096667;28;20019;-70
2020/12/03 04:19:56;;;;;;;16.05;9.63;;;51.40;2176.00;;;;;;5096078;28;20028;-72
2020/12/03 04:22:23;;;;;;;16.63;8.25;;;51.40;2176.00;;;;;;5096766;28;20056;-69
2020/12/03 04:24:49;;;;;;;14.80;7.82;;;51.20;2201.60;;;;;;5095959;28;20039;-72
2020/12/03 04:27:16;;;;;;;14.02;8.07;;;26.50;2176.00;;;;;;5095862;28;20143;-70
2020/12/03 04:29:42;;;;;;;14.68;8.00;;;51.20;2201.60;;;;;;5096092;28;20102;-68
2020/12/03 04:32:08;;;;;;;15.63;7.90;;;51.30;2176.00;;;;;;5095921;28;20027;-69
2020/12/03 04:34:34;;;;;;;19.85;10.07;;;51.30;2176.00;;;;;;5096045;28;20040;-72
2020/12/03 04:37:00;;;;;;;16.67;7.85;;;51.30;2176.00;;;;;;5096342;28;20028;-68
2020/12/03 04:39:26;;;;;;;15.40;7.95;;;51.30;2176.00;;;;;;5096356;28;20077;-67
2020/12/03 04:41:52;;;;;;;16.75;8.38;;;51.30;2201.60;;;;;;5096021;28;20090;-68
2020/12/03 04:44:38;;;;;;;15.82;7.68;;;51.30;2201.60;;;;;;5095916;28;20038;-71
2020/12/03 04:47:33;;;;;;;22.48;11.55;;;51.40;2201.60;;;;;;5096447;28;20418;-68
2020/12/03 04:50:28;;;;;;;18.05;8.57;;;51.50;2176.00;;;;;;5096162;28;20024;-70
2020/12/03 04:53:09;;;;;;;13.75;6.50;;;51.50;2176.00;;;;;;5095444;28;20024;-70
2020/12/03 04:55:49;;;;;;;15.80;7.32;;;51.50;2176.00;;;;;;5095972;28;20024;-69
2020/12/03 04:58:21;;;;;;;16.15;7.15;;;51.50;2176.00;;;;;;5095800;28;20162;-69
2020/12/03 05:01:30;;;;;;;17.42;8.07;;;51.50;2150.40;;;;;;5095930;28;20032;-69
2020/12/03 05:04:04;;;;;;;;;;;51.40;2201.60;;;;;;5048262;28;20113;-70
2020/12/03 05:06:35;;;;;;;24.23;11.07;;;51.60;2201.60;;;;;;5095646;28;19908;-69
2020/12/03 05:09:13;;;;;;;32.78;14.10;;;51.80;2201.60;;;;;;5095828;28;20028;-71
2020/12/03 05:11:44;;;;;;;49.63;19.67;;;51.70;2176.00;;;;;;5095796;28;20031;-71
2020/12/03 05:14:36;;;;;;;134.20;44.63;;;51.70;2176.00;;;;;;5095833;28;20123;-69
2020/12/03 05:17:27;;;;;;;34.47;15.90;;;51.80;2176.00;;;;;;5081439;28;20057;-68
2020/12/03 05:20:20;;;;;;;52.22;22.63;;;51.80;2176.00;;;;;;5095593;28;20028;-71
2020/12/03 05:22:55;;;;;;;36.17;16.20;;;51.90;2150.40;;;;;;5094713;28;20146;-69
2020/12/03 05:25:24;;;;;;;30.98;15.45;;;51.70;2150.40;;;;;;5095024;28;20082;-71
2020/12/03 05:27:54;;;;;;;58.22;30.98;;;51.60;2150.40;;;;;;5095300;28;20038;-71
2020/12/03 05:30:19;;;;;;;20.90;10.77;;;51.60;2176.00;;;;;;5095154;28;20031;-69
2020/12/03 05:32:46;;;;;;;16.17;8.38;;;51.50;2176.00;;;;;;5095562;28;20089;-69
2020/12/03 05:35:12;;;;;;;16.48;8.50;;;51.70;2150.40;;;;;;5095565;28;20036;-70
2020/12/03 05:37:39;;;;;;;18.02;9.20;;;51.70;2150.40;;;;;;5095312;28;20028;-70
2020/12/03 05:40:14;;;;;;;17.30;8.75;;;51.70;2176.00;;;;;;5094889;28;20030;-71
2020/12/03 05:42:41;;;;;;;15.65;8.45;;;51.70;2176.00;;;;;;5095218;28;20035;-68
2020/12/03 05:45:27;;;;;;;15.40;8.52;;;51.70;2176.00;;;;;;5094479;28;20043;-68
2020/12/03 05:47:54;;;;;;;20.23;7.93;;;51.90;2176.00;;;;;;5095065;28;20457;-69
2020/12/03 05:50:42;;;;;;;23.25;11.75;;;52.00;2176.00;;;;;;5094754;28;20020;-68
2020/12/03 05:53:19;;;;;;;37.33;18.02;;;76.80;2176.00;;;;;;5095258;28;20056;-69
2020/12/03 05:55:46;;;;;;;29.58;13.93;;;76.80;2176.00;;;;;;5095263;28;20414;-71
2020/12/03 05:58:21;;;;;;;22.00;10.35;;;76.80;2150.40;;;;;;5094780;28;20024;-70
2020/12/03 06:00:50;;;;;;;17.77;9.20;;;76.80;2124.80;;;;;;5095055;28;20454;-70
2020/12/03 06:04:00;;;;;;;15.45;7.85;;;76.80;2124.80;;;;;;5094625;28;20423;-70
2020/12/03 06:06:25;;;;;;;23.70;9.25;;;51.90;2150.40;;;;;;5058875;28;20151;-72
2020/12/03 06:09:24;;;;;;;21.60;8.73;;;51.70;2176.00;;;;;;5109674;28;20107;-72
2020/12/03 06:12:18;;;;;;;18.50;8.77;;;51.80;2176.00;;;;;;5064911;28;20039;-70
2020/12/03 06:14:50;;;;;;;53.10;22.02;;;51.60;2201.60;;;;;;5116229;28;20027;-70
2020/12/03 06:17:25;;;;;;;85.13;45.60;;;51.90;2176.00;;;;;;5117453;28;20023;-71
2020/12/03 06:20:15;;;;;;;58.45;38.42;;;52.10;2150.40;;;;;;5116722;28;20027;-69
2020/12/03 06:23:00;;;;;;;38.65;22.80;;;76.90;2150.40;;;;;;5117407;28;20051;-71
2020/12/03 06:25:25;;;;;;;29.10;15.43;;;77.20;2150.40;;;;;;5117064;28;20417;-69
2020/12/03 06:28:21;;;;;;;34.60;21.85;;;77.40;2099.20;;;;;;5113477;28;20035;-70
2020/12/03 06:31:01;;;;;;;26.30;13.15;;;77.40;2073.60;;;;;;5094660;28;20398;-69
2020/12/03 06:33:53;;;;;;;35.90;19.27;;;77.30;2073.60;;;;;;5095969;28;20020;-72
2020/12/03 06:36:39;;;;;;;24.45;13.43;;;77.30;2073.60;;;;;;5098760;28;20032;-68
2020/12/03 06:39:28;;;;;;;65.07;40.88;;;77.20;2099.20;;;;;;5098918;28;20405;-71
2020/12/03 06:42:03;;;;;;;23.30;11.88;;;77.10;2073.60;;;;;;5098255;28;20094;-69
2020/12/03 06:44:55;;;;;;;35.55;16.67;;;77.20;2099.20;;;;;;5097987;28;20032;-72
2020/12/03 06:47:42;;;;;;;42.55;19.50;;;77.30;2073.60;;;;;;5087112;28;20071;-70
2020/12/03 06:50:31;;;;;;;38.80;19.08;;;77.40;2073.60;;;;;;5098438;28;20400;-70
2020/12/03 06:53:14;;;;;;;43.92;18.55;;;77.50;2048.00;;;;;;5097765;28;20035;-70
2020/12/03 06:56:11;;;;;;;47.83;23.30;;;77.30;2073.60;;;;;;5097964;28;20384;-69
2020/12/03 06:59:17;;;;;;;80.78;38.72;;;77.20;2073.60;;;;;;5122983;27;20475;-69
2020/12/03 07:06:01;;;;;;;88.15;36.03;;;77.50;2022.40;;;;;;5111113;27;20035;-70
2020/12/03 07:08:59;;;;;;;65.55;31.48;;;77.30;2048.00;;;;;;5070176;27;20039;-71
2020/12/03 07:12:00;;;;;;;113.13;54.97;;;77.40;2048.00;;;;;;5138526;27;20046;-70
2020/12/03 07:14:50;;;;;;;38.15;19.77;;;77.50;2048.00;;;;;;5094938;27;20043;-71
2020/12/03 07:17:59;;;;;;;61.20;36.92;;;77.70;2048.00;;;;;;5116617;27;20042;-71
2020/12/03 07:20:49;;;;;;;115.38;58.83;;;102.70;2073.60;;;;;;5115380;27;20051;-68
2020/12/03 07:23:38;;;;;;;52.03;26.83;;;103.10;1996.80;;;;;;5117844;27;20130;-66
2020/12/03 07:26:28;;;;;;;77.75;42.45;;;103.30;1996.80;;;;;;5117795;28;20027;-69
2020/12/03 07:28:59;;;;;;;84.22;45.65;;;128.00;1996.80;;;;;;5111891;27;20055;-70
2020/12/03 07:31:35;;;;;;;75.78;46.58;;;128.10;1971.20;;;;;;5132323;27;20042;-69
2020/12/03 07:34:22;;;;;;;33.15;19.10;;;103.30;1945.60;;;;;;5130187;27;20058;-69
2020/12/03 07:36:57;;;;;;;53.35;29.85;;;128.30;1996.80;;;;;;5137011;27;20416;-72
2020/12/03 07:39:29;;;;;;;45.10;22.85;;;128.60;1996.80;;;;;;5137790;27;20019;-68
2020/12/03 07:41:58;;;;;;;79.20;46.53;;;128.80;1945.60;;;;;;5119790;27;20106;-71
2020/12/03 07:44:26;;;;;;;42.90;21.70;;;153.60;1920.00;;;;;;5116387;28;20036;-70
2020/12/03 07:47:14;;;;;;;21.35;9.68;;;153.60;1920.00;;;;;;5117205;28;20057;-70
2020/12/03 07:49:43;;;;;;;16.98;9.00;;;153.70;1945.60;;;;;;5116724;28;20413;-70
2020/12/03 07:52:28;;;;;;;;;;;153.90;1920.00;;;;;;5117285;28;20449;-72
2020/12/03 07:55:14;;;;;;;21.88;10.68;;;153.90;1894.40;;;;;;5117540;28;19939;-70
2020/12/03 07:57:40;;;;;;;21.52;10.10;;;154.00;1894.40;;;;;;5116517;28;20031;-69
2020/12/03 08:00:24;;;;;;;16.23;8.43;;;154.20;1868.80;;;;;;5117552;28;20035;-71
2020/12/03 08:02:58;;;;;;;19.80;8.90;;;154.20;1868.80;;;;;;5116487;28;20015;-73
2020/12/03 08:05:48;;;;;;;16.63;10.13;;;154.30;1868.80;;;;;;5119182;27;20449;-70
2020/12/03 08:08:24;;;;;;;13.73;7.07;;;154.40;1817.60;;;;;;5114494;27;20027;-70
2020/12/03 08:10:52;;;;;;;38.03;26.10;;;154.30;1868.80;;;;;;5133474;27;20099;-69
2020/12/03 08:13:33;;;;;;;20.63;11.80;;;154.50;1843.20;;;;;;5126351;27;20023;-70
2020/12/03 08:16:06;;;;;;;17.42;11.60;;;154.40;1843.20;;;;;;5135045;27;20031;-70
2020/12/03 08:18:47;;;;;;;26.05;18.70;;;154.30;1817.60;;;;;;5135305;27;20305;-70
2020/12/03 08:21:15;;;;;;;23.77;11.88;;;154.30;1843.20;;;;;;5134193;27;20058;-71
2020/12/03 08:23:52;;;;;;;18.23;11.80;;;154.40;1817.60;;;;;;5131569;27;20500;-68
2020/12/03 08:26:28;;;;;;;18.75;12.25;;;154.10;1817.60;;;;;;5115942;27;20121;-69
2020/12/03 08:28:54;;;;;;;21.13;12.75;;;154.20;1817.60;;;;;;5128420;27;20031;-68
2020/12/03 08:31:20;;;;;;;18.73;9.48;;;154.20;1843.20;;;;;;5118444;27;20448;-70
2020/12/03 08:33:52;;;;;;;17.17;8.68;;;154.00;1843.20;;;;;;5118694;27;20054;-71
2020/12/03 08:36:18;;;;;;;27.80;11.93;;;153.90;1843.20;;;;;;5134211;27;20030;-71
2020/12/03 08:38:51;;;;;;;18.80;9.40;;;153.90;1843.20;;;;;;5122035;27;20027;-68
2020/12/03 08:41:19;;;;;;;21.33;9.40;;;153.80;1843.20;;;;;;5113375;28;20138;-71
2020/12/03 08:43:51;;;;;;;19.38;13.05;;;153.70;1843.20;;;;;;5113088;28;20058;-68
2020/12/03 08:46:25;;;;;;;16.08;11.23;;;153.70;1817.60;;;;;;5093330;28;20032;-71
2020/12/03 08:48:52;;;;;;;21.98;13.80;;;153.70;1868.80;;;;;;5093653;28;20147;-70
2020/12/03 08:51:18;;;;;;;17.45;8.95;;;153.80;1817.60;;;;;;5091889;28;20401;-67
2020/12/03 08:53:47;;;;;;;17.77;9.23;;;153.90;1843.20;;;;;;5092798;28;20038;-69
2020/12/03 08:56:15;;;;;;;21.25;15.52;;;154.00;1817.60;;;;;;5091973;28;20093;-71
2020/12/03 08:59:10;;;;;;;16.08;9.07;;;154.00;1817.60;;;;;;5131652;27;20080;-71
2020/12/03 09:01:46;;;;;;;18.70;9.02;;;154.10;1817.60;;;;;;5126815;27;20015;-70
2020/12/03 09:04:24;;;;;;;19.48;8.55;;;154.00;1817.60;;;;;;5112814;28;20408;-70
2020/12/03 09:06:52;;;;;;;19.00;9.70;;;154.20;1817.60;;;;;;5123413;27;20038;-70
2020/12/03 09:09:23;;;;;;;24.42;15.75;;;154.10;1817.60;;;;;;5134480;27;20316;-71
2020/12/03 09:11:50;;;;;;;20.92;10.98;;;154.20;1817.60;;;;;;5133218;27;20054;-69
2020/12/03 09:14:17;;;;;;;24.75;9.63;;;154.40;1792.00;;;;;;5132401;27;20027;-72
2020/12/03 09:16:46;;;;;;;18.33;7.75;;;154.30;1766.40;;;;;;5133396;27;20058;-70
2020/12/03 09:19:22;;;;;;;16.65;7.35;;;154.20;1817.60;;;;;;5133006;27;20485;-71
2020/12/03 09:21:50;;;;;;;17.90;7.45;;;154.20;1817.60;;;;;;5125939;27;20043;-69
2020/12/03 09:24:19;;;;;;;22.00;8.45;;;154.30;1792.00;;;;;;5112501;28;20039;-71
2020/12/03 09:26:47;;;;;;;19.63;9.77;;;154.30;1792.00;;;;;;5113196;28;20082;-72
2020/12/03 09:29:13;;;;;;;14.82;8.85;;;154.50;1792.00;;;;;;5112052;28;20413;-70
2020/12/03 09:31:39;;;;;;;15.45;8.02;;;179.20;1792.00;;;;;;5113013;28;20038;-69
2020/12/03 09:34:08;;;;;;;24.63;11.57;;;179.30;1766.40;;;;;;5113338;28;20436;-71
2020/12/03 09:36:36;;;;;;;25.98;14.05;;;179.40;1766.40;;;;;;5113431;28;20023;-71
2020/12/03 09:39:02;;;;;;;17.52;9.10;;;179.50;1740.80;;;;;;5113712;28;20080;-70
2020/12/03 09:41:29;;;;;;;20.42;7.43;;;179.60;1715.20;;;;;;5113383;28;20031;-71
2020/12/03 09:43:59;;;;;;;16.23;7.35;;;179.50;1766.40;;;;;;5112225;28;20085;-69
2020/12/03 09:46:29;;;;;;;13.30;6.38;;;179.90;1715.20;;;;;;5112381;28;20031;-72
2020/12/03 09:48:55;;;;;;;28.92;15.20;;;204.80;1715.20;;;;;;5110106;28;20034;-72
2020/12/03 09:51:23;;;;;;;12.32;7.00;;;205.10;1689.60;;;;;;5123423;28;20023;-70
2020/12/03 09:53:50;;;;;;;31.88;15.95;;;205.40;1638.40;;;;;;5115362;28;20024;-70
2020/12/03 09:56:18;;;;;;;16.38;9.75;;;205.30;1638.40;;;;;;5113216;28;20030;-72
2020/12/03 09:58:45;;;;;;;22.45;12.90;;;205.50;1638.40;;;;;;5131647;28;20038;-71
2020/12/03 10:01:12;;;;;;;24.27;13.60;;;205.40;1638.40;;;;;;5129937;28;20079;-69
2020/12/03 10:04:15;;;;;;;26.23;9.45;;;205.60;1612.80;;;;;;5115786;28;20039;-69
2020/12/03 10:07:29;;;;;;;16.80;9.68;;;205.40;1587.20;;;;;;5111322;28;20340;-70
2020/12/03 10:10:21;;;;;;;17.48;10.07;;;205.30;1612.80;;;;;;5115606;28;20036;-70
2020/12/03 10:13:06;;;;;;;17.80;10.68;;;205.50;1561.60;;;;;;5116019;27;20027;-72
2020/12/03 10:15:50;;;;;;;21.48;12.02;;;205.30;1612.80;;;;;;5127922;27;20440;-71
2020/12/03 10:18:22;;;;;;;26.95;15.30;;;205.60;1587.20;;;;;;5135600;27;20051;-72
2020/12/03 10:20:51;;;;;;;25.17;15.90;;;205.70;1587.20;;;;;;5135342;27;20378;-70
2020/12/03 10:23:37;;;;;;;16.27;11.60;;;230.40;1587.20;;;;;;5135410;27;20041;-73
2020/12/03 10:26:23;;;;;;;22.30;17.35;;;230.60;1587.20;;;;;;5135327;27;20070;-70
2020/12/03 10:29:04;;;;;;;23.95;18.65;;;230.70;1536.00;;;;;;5101444;28;20019;-73
2020/12/03 10:31:30;;;;;;;33.58;27.73;;;231.00;1510.40;;;;;;5123035;27;20027;-72
2020/12/03 10:33:59;;;;;;;32.58;25.40;;;231.30;1484.80;;;;;;5138889;27;20038;-70
2020/12/03 10:36:40;;;;;;;17.73;12.10;;;231.30;1510.40;;;;;;5138864;27;20099;-70
2020/12/03 10:39:11;;;;;;;32.88;28.75;;;256.10;1484.80;;;;;;5137794;27;20031;-71
2020/12/03 10:41:40;;;;;;;16.70;12.27;;;256.40;1484.80;;;;;;5119624;27;20110;-71
2020/12/03 10:44:16;;;;;;;32.55;26.40;;;256.60;1459.20;;;;;;5112566;28;20032;-71
2020/12/03 10:46:47;;;;;;;18.23;14.07;;;256.60;1459.20;;;;;;5117486;28;20138;-71
2020/12/03 10:49:16;;;;;;;17.15;15.00;;;256.80;1433.60;;;;;;5117166;28;20023;-70
2020/12/03 10:51:45;;;;;;;17.70;14.07;;;281.70;1433.60;;;;;;5117723;28;20015;-71
2020/12/03 10:54:18;;;;;;;21.30;11.38;;;282.10;1433.60;;;;;;5118057;28;20039;-71
2020/12/03 10:56:47;;;;;;;15.75;8.05;;;282.00;1459.20;;;;;;5117419;28;20023;-72
2020/12/03 10:59:31;;;;;;;24.50;14.05;;;281.80;1382.40;;;;;;5116750;28;20152;-71
2020/12/03 11:01:59;;;;;;;22.80;11.52;;;256.70;1382.40;;;;;;5109172;28;20023;-70
2020/12/03 11:04:26;;;;;;;23.63;13.63;;;256.50;1382.40;;;;;;5096175;28;20393;-71
2020/12/03 11:06:52;;;;;;;16.75;9.50;;;256.30;1408.00;;;;;;5095239;28;20028;-71
2020/12/03 11:09:21;;;;;;;13.57;8.68;;;256.30;1408.00;;;;;;5097502;28;20032;-71
2020/12/03 11:11:48;;;;;;;13.73;7.80;;;256.40;1408.00;;;;;;5097302;28;20055;-71
2020/12/03 11:14:16;;;;;;;12.75;8.45;;;256.90;1408.00;;;;;;5104396;27;20385;-71
2020/12/03 11:16:56;;;;;;;17.00;7.93;;;282.00;1408.00;;;;;;5116825;28;20356;-71
2020/12/03 11:19:24;;;;;;;22.63;9.93;;;282.50;1356.80;;;;;;5116437;28;20462;-69
2020/12/03 11:22:05;;;;;;;12.43;8.45;;;282.20;1331.20;;;;;;5116405;28;20070;-71
2020/12/03 11:24:43;;;;;;;10.30;6.30;;;307.20;1382.40;;;;;;5116663;28;20212;-71
2020/12/03 11:27:10;;;;;;;13.50;6.20;;;307.70;1356.80;;;;;;5116487;28;20736;-70
2020/12/03 11:29:36;;;;;;;43.38;7.68;;;307.50;1305.60;;;;;;5117624;28;20020;-71
2020/12/03 11:32:03;;;;;;;20.25;7.00;;;307.60;1305.60;;;;;;5116770;28;20027;-72
2020/12/03 11:34:39;;;;;;;24.67;7.65;;;281.80;1331.20;;;;;;5116165;28;20110;-72
2020/12/03 11:37:08;;;;;;;14.15;5.97;;;256.30;1408.00;;;;;;5116566;28;20035;-71
2020/12/03 11:39:33;;;;;;;;;;;256.30;1408.00;;;;;;5117703;28;20027;-74
2020/12/03 11:50:12;;;;;;;26.38;15.57;;;256.00;1408.00;;;;;;5116393;28;20034;-69
2020/12/03 11:52:37;;;;;;;16.23;11.30;;;231.30;1433.60;;;;;;5115917;28;20028;-71
2020/12/03 11:55:23;;;;;;;12.82;8.60;;;231.10;1484.80;;;;;;5116411;28;20374;-73
2020/12/03 11:57:49;;;;;;;26.70;21.30;;;231.00;1510.40;;;;;;5126261;27;20019;-73
2020/12/03 12:00:18;;;;;;;10.80;7.72;;;230.80;1510.40;;;;;;5136174;27;20035;-71
2020/12/03 12:02:44;;;;;;;13.80;8.47;;;230.40;1561.60;;;;;;5120834;27;20019;-72
2020/12/03 12:05:19;;;;;;;24.80;10.85;;;205.50;1561.60;;;;;;5115794;28;20039;-70
2020/12/03 12:07:56;;;;;;;11.80;7.72;;;205.40;1587.20;;;;;;5115581;28;20440;-73
2020/12/03 12:10:30;;;;;;;15.43;6.78;;;205.40;1587.20;;;;;;5114528;28;20100;-70
2020/12/03 12:12:56;;;;;;;10.00;5.18;;;205.30;1612.80;;;;;;5116063;28;20023;-72
2020/12/03 12:15:21;;;;;;;20.67;6.93;;;205.40;1612.80;;;;;;5116096;28;20031;-70
2020/12/03 12:17:47;;;;;;;18.27;6.13;;;205.30;1612.80;;;;;;5114968;28;20051;-71
2020/12/03 12:20:14;;;;;;;14.25;8.88;;;205.30;1612.80;;;;;;5117075;28;20027;-70
2020/12/03 12:22:40;;;;;;;21.13;10.15;;;205.40;1612.80;;;;;;5119166;28;20055;-72
2020/12/03 12:25:07;;;;;;;12.52;8.02;;;205.40;1587.20;;;;;;5118973;28;20076;-72
2020/12/03 12:27:33;;;;;;;13.73;10.50;;;205.40;1587.20;;;;;;5109604;28;20024;-71
2020/12/03 12:29:59;;;;;;;28.58;17.50;;;205.30;1587.20;;;;;;5098034;28;20032;-74
2020/12/03 12:32:25;;;;;;;17.92;10.20;;;205.10;1612.80;;;;;;5097986;28;20027;-72
2020/12/03 12:34:51;;;;;;;28.52;16.40;;;205.10;1612.80;;;;;;5108840;28;20038;-69
2020/12/03 12:37:22;;;;;;;16.67;9.93;;;205.10;1612.80;;;;;;5113343;28;20444;-71
2020/12/03 12:39:48;;;;;;;19.10;4.28;;;205.00;1612.80;;;;;;5130401;27;20102;-71
2020/12/03 12:42:14;;;;;;;24.75;6.60;;;205.00;1638.40;;;;;;5117227;28;20103;-71
2020/12/03 12:44:40;;;;;;;13.48;6.13;;;205.00;1638.40;;;;;;5117235;28;20031;-72
2020/12/03 12:47:06;;;;;;;18.48;7.07;;;180.10;1638.40;;;;;;5118414;27;20465;-71
2020/12/03 12:49:32;;;;;;;10.93;6.57;;;180.10;1638.40;;;;;;5118567;28;20104;-71